Time;durP1;ratioP1;P1;durP2;ratioP2;P2;SDS_P1;SDS_P2;PMS_P1;PMS_P2;Temp;Humidity;BMP_temperature;BMP_pressure;BME280_temperature;BME280_humidity;BME280_pressure;Samples;Min_cycle;Max_cycle;Signal;HPM_P1;HPM_P2
2022/08/08 00:00:09;;;;;;;3.70;2.05;;;;;;;21.27;38.88;100293.03;4989517;28;20045;-83
2022/08/08 00:03:32;;;;;;;4.35;2.42;;;;;;;21.35;37.70;100292.91;4921463;28;20062;-83
2022/08/08 00:05:59;;;;;;;6.43;2.33;;;;;;;21.42;38.33;100293.81;4927271;28;20042;-83
2022/08/08 00:08:40;;;;;;;2.10;1.88;;;;;;;21.33;38.45;100295.78;4999709;28;20517;-83
2022/08/08 00:11:37;;;;;;;5.13;2.08;;;;;;;21.23;37.95;100298.81;4948610;28;20054;-83
2022/08/08 00:14:35;;;;;;;5.25;1.77;;;;;;;21.41;37.71;100295.69;4903961;28;20078;-87
2022/08/08 00:17:41;;;;;;;3.33;1.80;;;;;;;21.32;37.57;100294.13;4929214;28;20055;-86
2022/08/08 00:20:47;;;;;;;4.13;1.75;;;;;;;21.39;36.67;100291.50;4922256;28;20070;-86
2022/08/08 00:23:29;;;;;;;5.65;1.98;;;;;;;21.50;35.47;100293.69;4943074;28;20429;-82
2022/08/08 00:26:11;;;;;;;1.95;1.77;;;;;;;21.77;35.11;100292.00;4913605;28;20144;-82
2022/08/08 00:28:45;;;;;;;1.88;1.60;;;;;;;21.76;34.74;100293.03;4910992;28;20047;-82
2022/08/08 00:31:18;;;;;;;3.35;1.60;;;;;;;21.83;33.75;100290.34;4928300;28;20450;-82
2022/08/08 00:37:44;;;;;;;2.88;1.80;;;;;;;21.87;33.02;100281.66;4939534;28;20839;-87
2022/08/08 00:40:34;;;;;;;2.70;1.52;;;;;;;21.94;33.59;100287.13;4882000;28;20058;-86
2022/08/08 00:43:51;;;;;;;1.63;1.52;;;;;;;21.87;33.45;100288.94;4906789;28;20055;-86
2022/08/08 00:46:42;;;;;;;3.25;1.70;;;;;;;21.92;32.98;100289.19;4904920;28;20053;-86
2022/08/08 00:49:27;;;;;;;2.30;1.80;;;;;;;22.05;33.04;100293.81;4966860;28;20038;-83
2022/08/08 00:52:09;;;;;;;2.42;1.65;;;;;;;21.99;33.10;100290.06;5004911;28;20046;-82
2022/08/08 00:55:07;;;;;;;2.28;1.58;;;;;;;21.91;33.10;100292.94;4956675;28;20050;-82
2022/08/08 00:57:56;;;;;;;2.03;1.83;;;;;;;21.82;33.54;100291.41;4990482;28;20623;-83
2022/08/08 01:00:30;;;;;;;2.83;1.50;;;;;;;21.95;33.84;100286.06;4907845;28;20053;-86
2022/08/08 01:03:47;;;;;;;2.30;1.70;;;;;;;21.83;34.41;100287.66;4982044;28;20038;-85
2022/08/08 01:06:55;;;;;;;3.47;1.67;;;;;;;21.70;34.77;100285.69;4938062;28;20055;-87
2022/08/08 01:09:58;;;;;;;2.90;1.88;;;;;;;21.75;35.26;100288.63;4912595;28;20195;-87
2022/08/08 01:12:48;;;;;;;3.40;1.73;;;;;;;21.56;34.79;100278.53;4945957;28;20399;-87
2022/08/08 01:15:39;;;;;;;2.33;1.95;;;;;;;21.67;34.57;100284.22;4913261;28;20450;-87
2022/08/08 01:19:04;;;;;;;1.95;1.80;;;;;;;21.34;36.45;100283.09;4952320;28;20406;-87
2022/08/08 01:21:42;;;;;;;4.47;1.85;;;;;;;21.57;35.48;100277.50;4904280;28;20335;-83
2022/08/08 01:24:42;;;;;;;3.00;1.80;;;;;;;21.53;35.81;100284.34;4920473;28;20541;-83
2022/08/08 01:27:32;;;;;;;3.08;1.67;;;;;;;21.53;35.71;100290.59;4982563;28;20050;-83
2022/08/08 01:30:19;;;;;;;3.13;1.80;;;;;;;21.56;35.44;100283.94;4967363;28;20047;-83
2022/08/08 01:33:17;;;;;;;2.50;1.75;;;;;;;21.35;35.91;100287.50;4948404;28;20410;-84
2022/08/08 01:36:28;;;;;;;2.63;1.70;;;;;;;21.25;36.08;100288.66;4912010;28;20042;-83
2022/08/08 01:39:08;;;;;;;2.15;1.73;;;;;;;21.24;36.36;100297.81;4935188;28;20078;-84
2022/08/08 01:41:53;;;;;;;4.60;1.98;;;;;;;21.27;36.00;100296.59;4995241;28;20130;-86
2022/08/08 01:44:53;;;;;;;3.42;1.73;;;;;;;21.22;35.62;100296.31;4978776;28;20079;-86
2022/08/08 01:47:50;;;;;;;2.53;2.03;;;;;;;21.26;35.83;100289.50;4946578;28;20056;-87
2022/08/08 01:51:17;;;;;;;3.95;1.90;;;;;;;21.12;36.48;100290.41;4930355;28;20042;-87
2022/08/08 01:54:31;;;;;;;2.17;1.83;;;;;;;21.09;36.44;100288.94;4907438;28;22504;-87
2022/08/08 01:57:44;;;;;;;2.28;2.03;;;;;;;21.17;36.20;100287.97;4947279;28;20054;-86
2022/08/08 02:00:49;;;;;;;2.13;1.92;;;;;;;21.15;36.13;100287.31;4948198;28;20415;-86
2022/08/08 02:03:56;;;;;;;4.63;1.80;;;;;;;21.32;33.90;100286.03;4917888;28;20069;-86
2022/08/08 02:06:48;;;;;;;2.72;2.05;;;;;;;21.37;34.82;100293.53;5008619;28;20069;-87
2022/08/08 02:09:31;;;;;;;6.07;2.10;;;;;;;21.45;33.85;100298.84;4915805;28;20058;-87
2022/08/08 02:12:29;;;;;;;2.90;1.90;;;;;;;;;;4924363;28;20136;-87
2022/08/08 02:15:31;;;;;;;1.70;1.60;;;;;;;21.40;33.69;100290.50;4978253;28;20114;-86
2022/08/08 02:18:15;;;;;;;4.30;2.10;;;;;;;21.40;33.40;100296.72;4955237;28;20039;-86
2022/08/08 02:23:58;;;;;;;3.78;1.85;;;;;;;21.57;33.05;100304.53;4957445;28;20517;-87
2022/08/08 02:26:31;;;;;;;2.22;2.00;;;;;;;21.60;32.93;100302.28;5002645;28;20050;-83
2022/08/08 02:29:12;;;;;;;4.60;1.90;;;;;;;21.56;33.28;100309.09;4998321;28;20573;-86
2022/08/08 02:32:03;;;;;;;2.72;1.85;;;;;;;21.58;33.24;100307.03;4939688;28;20054;-87
2022/08/08 02:34:54;;;;;;;4.25;1.88;;;;;;;21.48;33.38;100308.41;4964318;28;20117;-87
2022/08/08 02:38:23;;;;;;;1.95;1.73;;;;;;;21.44;34.95;100303.38;4949052;28;20402;-87
2022/08/08 02:41:24;;;;;;;3.95;1.88;;;;;;;21.29;34.16;100304.47;4937711;28;20054;-87
2022/08/08 02:44:37;;;;;;;3.17;1.85;;;;;;;21.29;34.24;100297.19;4897031;28;20119;-87
2022/08/08 02:47:54;;;;;;;3.83;2.05;;;;;;;21.20;35.90;100296.50;4938778;28;20078;-86
2022/08/08 02:50:43;;;;;;;4.22;1.75;;;;;;;21.01;36.29;100299.84;4928012;28;20544;-82
2022/08/08 02:53:32;;;;;;;3.95;1.63;;;;;;;21.20;35.90;100301.09;4919264;28;20666;-82
2022/08/08 02:56:38;;;;;;;5.13;2.40;;;;;;;21.00;36.53;100296.31;4948317;28;20122;-82
2022/08/08 02:59:42;;;;;;;1.70;1.60;;;;;;;20.86;36.70;100302.59;4889100;29;20055;-82
2022/08/08 03:02:45;;;;;;;4.72;1.90;;;;;;;20.88;35.61;100305.94;4884390;29;20047;-82
2022/08/08 03:05:31;;;;;;;2.17;1.90;;;;;;;20.96;36.03;100302.28;4890482;28;20055;-84
2022/08/08 03:08:25;;;;;;;2.88;1.60;;;;;;;20.85;36.76;100316.28;4903101;28;20047;-82
2022/08/08 03:11:12;;;;;;;2.53;1.80;;;;;;;20.84;37.05;100306.50;4892581;29;20043;-87
2022/08/08 03:14:08;;;;;;;2.80;1.92;;;;;;;20.85;36.82;100313.59;4895172;28;20130;-86
2022/08/08 03:17:40;;;;;;;1.90;1.70;;;;;;;20.63;37.22;100318.94;4870192;28;20051;-86
2022/08/08 03:20:10;;;;;;;1.63;1.52;;;;;;;20.75;37.37;100314.72;4844571;28;20111;-86
2022/08/08 03:22:49;;;;;;;2.05;1.77;;;;;;;20.67;37.70;100316.72;4930583;28;20097;-87
2022/08/08 03:25:26;;;;;;;3.30;1.83;;;;;;;20.65;37.49;100318.78;4893407;28;20462;-85
2022/08/08 03:28:27;;;;;;;2.53;1.80;;;;;;;20.55;37.79;100319.06;4917011;28;20035;-85
2022/08/08 03:30:55;;;;;;;3.85;1.90;;;;;;;20.68;37.21;100318.38;4954648;28;20131;-86
2022/08/08 03:33:44;;;;;;;3.90;1.85;;;;;;;20.70;37.27;100316.34;4961748;28;20453;-86
2022/08/08 03:36:26;;;;;;;2.08;1.65;;;;;;;20.67;37.38;100314.03;4953758;28;20463;-86
2022/08/08 03:38:58;;;;;;;2.60;1.40;;;;;;;20.69;37.34;100322.78;4929901;28;20405;-82
2022/08/08 03:41:43;;;;;;;2.92;1.88;;;;;;;20.67;37.11;100320.25;4968281;28;20391;-83
2022/08/08 03:44:34;;;;;;;5.40;2.00;;;;;;;20.58;37.57;100321.38;4947687;28;20050;-85
2022/08/08 03:47:05;;;;;;;6.97;1.95;;;;;;;20.59;37.57;100328.47;4973417;28;20126;-85
2022/08/08 03:49:49;;;;;;;5.90;1.90;;;;;;;20.58;38.58;100332.16;4940162;28;20414;-85
2022/08/08 03:52:32;;;;;;;7.47;2.55;;;;;;;20.34;39.58;100333.28;4982102;28;20042;-86
2022/08/08 03:55:08;;;;;;;4.03;2.00;;;;;;;20.36;39.82;100332.09;4966513;28;20105;-85
2022/08/08 03:57:56;;;;;;;6.07;2.00;;;;;;;20.41;38.90;100339.63;4953704;28;20053;-86
2022/08/08 04:00:48;;;;;;;4.63;1.70;;;;;;;20.28;39.26;100334.88;4955053;28;20169;-86
2022/08/08 04:04:25;;;;;;;3.92;2.20;;;;;;;20.06;39.55;100343.91;4970522;28;20047;-88
2022/08/08 04:07:24;;;;;;;3.90;1.83;;;;;;;19.98;39.96;100338.59;4914129;28;20046;-83
2022/08/08 04:09:55;;;;;;;3.47;1.95;;;;;;;20.17;38.84;100341.59;5011727;28;20081;-83
2022/08/08 04:12:30;;;;;;;4.05;2.38;;;;;;;20.31;38.52;100339.06;4980266;28;20066;-82
2022/08/08 04:14:58;;;;;;;2.42;2.05;;;;;;;20.25;38.65;100337.97;4978002;28;20073;-83
2022/08/08 04:17:26;;;;;;;7.20;1.98;;;;;;;20.34;38.25;100334.13;4971992;28;20058;-82
2022/08/08 04:20:14;;;;;;;2.10;2.00;;;;;;;20.29;38.94;100335.72;4978761;28;20050;-82
2022/08/08 04:22:45;;;;;;;2.45;2.22;;;;;;;20.28;39.03;100342.16;5017845;28;20073;-82
2022/08/08 04:25:18;;;;;;;4.00;2.03;;;;;;;20.35;38.53;100346.59;4995901;28;20508;-82
2022/08/08 04:27:46;;;;;;;3.42;2.05;;;;;;;20.37;38.41;100351.78;4981310;28;20161;-82
2022/08/08 04:30:33;;;;;;;1.85;1.75;;;;;;;20.43;38.19;100348.38;4996948;28;20042;-82
2022/08/08 04:33:09;;;;;;;3.67;2.08;;;;;;;20.41;38.63;100355.81;4981787;28;20447;-82
2022/08/08 04:35:36;;;;;;;2.67;2.00;;;;;;;20.35;38.52;100362.78;4966701;28;20534;-82
2022/08/08 04:38:07;;;;;;;2.67;1.95;;;;;;;20.32;38.79;100365.00;4950740;28;20691;-82
2022/08/08 04:40:39;;;;;;;4.80;2.15;;;;;;;20.39;38.78;100369.47;4962164;28;20109;-82
2022/08/08 04:43:21;;;;;;;1.98;1.80;;;;;;;20.49;39.00;100366.50;4982651;28;20122;-82
2022/08/08 04:45:59;;;;;;;2.78;2.20;;;;;;;20.60;38.11;100376.81;4984143;28;22852;-82
2022/08/08 04:48:26;;;;;;;5.03;2.25;;;;;;;20.70;38.13;100367.63;4995427;28;20050;-82
2022/08/08 04:50:57;;;;;;;2.38;2.00;;;;;;;20.76;38.90;100370.41;4982997;28;20038;-82
2022/08/08 04:53:28;;;;;;;4.63;2.15;;;;;;;20.76;39.82;100381.19;4954913;28;20050;-82
2022/08/08 04:56:18;;;;;;;6.07;2.20;;;;;;;20.75;41.48;100389.47;4978590;28;20442;-82
2022/08/08 04:58:44;;;;;;;2.58;2.30;;;;;;;20.78;41.50;100386.38;4981534;28;20062;-82
2022/08/08 05:01:14;;;;;;;7.15;2.67;;;;;;;20.77;40.64;100384.72;4975591;28;20461;-83
2022/08/08 05:03:46;;;;;;;8.27;2.25;;;;;;;20.76;39.28;100391.13;4958207;28;20046;-82
2022/08/08 05:10:47;;;;;;;2.10;1.90;;;;;;;20.76;37.92;100399.22;4946928;28;20034;-82
2022/08/08 05:13:13;;;;;;;2.55;2.05;;;;;;;20.87;36.83;100395.22;4965044;28;20134;-82
2022/08/08 05:15:44;;;;;;;2.70;1.80;;;;;;;20.92;36.34;100400.91;5001427;28;20096;-82
2022/08/08 05:18:32;;;;;;;2.83;2.38;;;;;;;20.91;36.37;100399.22;4962532;28;20674;-82
2022/08/08 05:20:59;;;;;;;3.08;2.10;;;;;;;20.96;35.97;100399.47;4970427;28;20739;-82
2022/08/08 05:23:31;;;;;;;6.15;2.25;;;;;;;20.96;36.09;100402.19;4930286;28;20117;-82
2022/08/08 05:26:07;;;;;;;3.78;2.00;;;;;;;21.00;35.66;100409.72;4948623;28;20061;-82
2022/08/08 05:28:39;;;;;;;2.42;2.10;;;;;;;20.92;35.52;100411.69;4959378;28;20077;-83
2022/08/08 05:31:26;;;;;;;5.45;2.90;;;;;;;20.84;35.46;100409.94;4914219;28;20044;-83
2022/08/08 05:34:20;;;;;;;3.28;2.28;;;;;;;20.83;35.46;100412.81;4935776;28;20383;-82
2022/08/08 05:36:53;;;;;;;3.17;2.35;;;;;;;20.95;35.43;100422.13;4975394;28;20114;-82
2022/08/08 05:39:22;;;;;;;2.83;1.92;;;;;;;20.97;35.47;100426.28;4995112;28;20074;-82
2022/08/08 05:41:57;;;;;;;4.28;2.58;;;;;;;20.94;35.56;100415.88;4966816;28;20042;-82
2022/08/08 05:44:29;;;;;;;2.53;2.17;;;;;;;21.05;35.30;100414.53;4967526;28;20042;-82
2022/08/08 05:46:58;;;;;;;5.18;2.22;;;;;;;21.08;35.62;100418.72;4952254;28;20113;-82
2022/08/08 05:49:30;;;;;;;2.95;2.13;;;;;;;21.15;35.38;100425.06;4971447;28;20034;-82
2022/08/08 05:51:58;;;;;;;6.72;2.50;;;;;;;20.97;35.54;100436.25;4985291;28;20092;-83
2022/08/08 05:54:26;;;;;;;4.20;2.03;;;;;;;21.01;35.39;100421.34;4979985;28;20047;-82
2022/08/08 05:57:16;;;;;;;3.72;2.38;;;;;;;21.04;35.52;100421.00;4983471;28;20105;-82
2022/08/08 06:00:07;;;;;;;5.43;1.98;;;;;;;21.18;35.48;100430.91;4959211;28;20244;-82
2022/08/08 06:03:09;;;;;;;7.70;2.05;;;;;;;21.06;35.46;100423.47;4977154;28;20042;-82
2022/08/08 06:05:56;;;;;;;6.18;1.90;;;;;;;21.15;35.61;100425.88;4954206;28;20540;-83
2022/08/08 06:08:35;;;;;;;6.07;2.25;;;;;;;21.10;35.72;100430.19;4984059;28;20466;-83
2022/08/08 06:11:08;;;;;;;3.60;2.13;;;;;;;21.24;35.68;100426.59;4973822;28;20159;-83
2022/08/08 06:13:39;;;;;;;7.65;2.22;;;;;;;21.27;35.57;100437.03;4968115;28;20371;-82
2022/08/08 06:16:15;;;;;;;3.38;2.30;;;;;;;21.24;35.50;100438.25;4951350;28;20533;-82
2022/08/08 06:19:01;;;;;;;4.95;2.53;;;;;;;21.25;35.74;100439.91;4964066;28;20504;-83
2022/08/08 06:21:31;;;;;;;2.92;2.00;;;;;;;21.24;36.03;100437.41;4954058;28;20172;-83
2022/08/08 06:24:24;;;;;;;2.88;2.35;;;;;;;21.30;35.60;100438.53;4948183;28;20046;-83
2022/08/08 06:27:02;;;;;;;;;;;;;;;21.09;35.85;100440.16;4980498;28;20138;-82
2022/08/08 06:29:39;;;;;;;3.35;2.33;;;;;;;21.21;35.90;100440.47;4970385;28;19921;-83
2022/08/08 06:32:30;;;;;;;4.07;2.40;;;;;;;21.30;35.75;100449.31;4931270;28;20062;-82
2022/08/08 06:35:04;;;;;;;4.47;2.60;;;;;;;21.35;36.00;100445.03;4968886;28;20046;-82
2022/08/08 06:37:59;;;;;;;4.50;2.40;;;;;;;21.43;36.13;100441.38;4945176;28;20197;-83
2022/08/08 06:40:31;;;;;;;8.43;2.40;;;;;;;21.50;35.79;100441.44;4969395;28;20065;-84
2022/08/08 06:43:09;;;;;;;6.07;2.30;;;;;;;21.59;36.21;100451.09;4999826;28;20367;-84
2022/08/08 06:45:46;;;;;;;5.22;3.08;;;;;;;21.66;36.10;100446.59;4965836;28;20442;-84
2022/08/08 06:48:15;;;;;;;3.00;2.22;;;;;;;21.71;35.66;100446.88;4996737;28;20042;-84
2022/08/08 06:50:43;;;;;;;3.20;2.30;;;;;;;21.67;35.92;100442.84;4984251;28;20050;-83
2022/08/08 06:53:14;;;;;;;3.53;2.50;;;;;;;21.74;36.16;100451.03;4949587;28;20051;-83
2022/08/08 06:55:49;;;;;;;6.28;2.90;;;;;;;21.71;36.46;100449.56;4977742;28;20053;-84
2022/08/08 06:58:31;;;;;;;6.70;2.65;;;;;;;21.83;36.59;100452.56;4942676;28;20066;-84
2022/08/08 07:01:02;;;;;;;4.53;2.20;;;;;;;21.86;36.48;100446.78;4982216;28;20173;-84
2022/08/08 07:03:54;;;;;;;2.83;2.25;;;;;;;21.79;36.71;100451.31;4978989;28;20049;-83
2022/08/08 07:06:47;;;;;;;7.20;2.90;;;;;;;21.92;36.25;100448.72;4926262;28;20228;-83
2022/08/08 07:09:18;;;;;;;3.22;2.22;;;;;;;21.94;36.04;100453.94;4968116;28;20097;-83
2022/08/08 07:11:49;;;;;;;5.63;2.95;;;;;;;21.91;36.00;100449.75;4996222;28;20439;-83
2022/08/08 07:14:30;;;;;;;4.63;2.45;;;;;;;21.96;36.58;100447.31;4982788;28;20433;-83
2022/08/08 07:17:05;;;;;;;5.63;2.65;;;;;;;22.04;36.06;100451.72;4932233;28;20127;-83
2022/08/08 07:19:43;;;;;;;4.85;3.30;;;;;;;22.05;35.93;100454.22;4917228;28;20116;-83
2022/08/08 07:22:22;;;;;;;5.55;2.83;;;;;;;22.09;36.23;100450.09;4962933;28;20043;-82
2022/08/08 07:24:53;;;;;;;3.83;2.70;;;;;;;22.21;35.77;100455.84;4916247;28;20147;-83
2022/08/08 07:27:23;;;;;;;2.85;2.58;;;;;;;22.17;35.83;100451.00;4950213;28;20046;-82
2022/08/08 07:30:12;;;;;;;5.43;2.53;;;;;;;22.20;36.11;100459.56;4975857;28;20049;-82
2022/08/08 07:32:52;;;;;;;4.55;2.50;;;;;;;22.21;36.24;100449.59;4996475;28;20057;-82
2022/08/08 07:35:20;;;;;;;5.07;2.15;;;;;;;22.28;36.09;100451.31;4978427;28;20093;-83
2022/08/08 07:37:50;;;;;;;10.43;2.90;;;;;;;22.27;35.96;100451.53;4980447;28;20062;-82
2022/08/08 07:40:44;;;;;;;11.50;2.95;;;;;;;22.27;36.23;100452.34;4975741;28;20406;-83
2022/08/08 07:43:14;;;;;;;4.15;2.83;;;;;;;22.30;36.30;100456.53;4949200;28;20126;-83
2022/08/08 07:45:47;;;;;;;4.60;2.67;;;;;;;22.28;36.44;100451.31;4994588;28;20134;-83
2022/08/08 07:48:35;;;;;;;4.32;2.85;;;;;;;22.32;36.45;100458.00;4964118;28;20062;-82
2022/08/08 07:51:04;;;;;;;6.13;2.90;;;;;;;22.37;36.54;100453.88;4984642;28;20057;-83
2022/08/08 07:54:06;;;;;;;5.18;2.60;;;;;;;22.35;36.33;100455.94;4973644;28;20046;-83
2022/08/08 07:56:49;;;;;;;4.07;2.95;;;;;;;22.44;36.67;100455.59;4974974;28;20046;-83
2022/08/08 07:59:17;;;;;;;6.13;2.85;;;;;;;22.59;36.22;100458.16;5009053;28;20034;-84
2022/08/08 08:01:57;;;;;;;3.03;2.63;;;;;;;22.56;36.39;100460.44;5003706;28;20049;-83
2022/08/08 08:04:46;;;;;;;4.35;2.60;;;;;;;22.63;36.37;100462.16;4957535;28;20488;-84
2022/08/08 08:07:21;;;;;;;4.15;2.60;;;;;;;22.67;36.37;100460.72;4995099;28;20053;-84
2022/08/08 08:10:03;;;;;;;7.38;3.25;;;;;;;22.71;36.70;100466.56;4988413;28;20124;-84
2022/08/08 08:12:31;;;;;;;4.33;2.70;;;;;;;22.78;36.86;100461.19;5000007;28;20049;-84
2022/08/08 08:15:11;;;;;;;3.92;2.75;;;;;;;22.85;36.82;100462.91;5009768;28;20053;-83
2022/08/08 08:17:44;;;;;;;4.88;2.72;;;;;;;22.93;37.03;100459.19;4983849;28;20045;-83
2022/08/08 08:24:47;;;;;;;6.15;3.10;;;;;;;23.00;36.82;100472.78;5012406;28;20052;-82
2022/08/08 08:27:18;;;;;;;4.32;2.60;;;;;;;23.02;36.70;100470.72;5001649;28;20054;-83
2022/08/08 08:29:47;;;;;;;4.80;2.78;;;;;;;23.04;36.68;100466.75;4966059;28;20123;-83
2022/08/08 08:32:19;;;;;;;3.92;2.63;;;;;;;23.08;36.56;100468.03;5005104;28;20776;-83
2022/08/08 08:35:11;;;;;;;4.72;3.10;;;;;;;23.14;37.42;100464.50;5001416;28;20045;-83
2022/08/08 08:37:42;;;;;;;3.58;2.97;;;;;;;23.19;36.92;100459.31;5039706;28;20056;-83
2022/08/08 08:40:31;;;;;;;4.65;3.30;;;;;;;23.21;36.63;100461.84;4957914;28;20052;-84
2022/08/08 08:43:01;;;;;;;3.10;2.80;;;;;;;23.25;36.77;100471.22;5022672;28;20060;-83
2022/08/08 08:45:30;;;;;;;8.48;3.17;;;;;;;23.30;36.95;100460.59;5005914;28;20482;-83
2022/08/08 08:48:00;;;;;;;5.95;3.05;;;;;;;23.34;37.11;100453.75;5016994;28;20050;-83
2022/08/08 08:50:40;;;;;;;3.83;3.00;;;;;;;23.30;37.34;100463.31;5023497;28;20095;-84
2022/08/08 08:53:14;;;;;;;8.20;3.17;;;;;;;23.38;37.12;100457.72;5004603;28;20046;-83
2022/08/08 08:56:07;;;;;;;4.80;2.78;;;;;;;23.43;36.94;100456.25;4958557;28;20473;-83
2022/08/08 08:58:42;;;;;;;5.07;3.17;;;;;;;23.43;37.20;100459.78;4989873;28;20549;-83
2022/08/08 09:01:23;;;;;;;4.93;3.22;;;;;;;23.48;37.07;100457.31;4991748;28;20084;-83
2022/08/08 09:03:55;;;;;;;6.05;3.20;;;;;;;23.50;37.24;100449.81;5008413;28;20140;-82
2022/08/08 09:06:31;;;;;;;5.10;3.20;;;;;;;23.56;37.09;100454.44;4999762;28;20057;-83
2022/08/08 09:09:10;;;;;;;6.05;3.47;;;;;;;23.54;37.49;100453.78;4988361;28;20120;-83
2022/08/08 09:12:06;;;;;;;3.88;3.10;;;;;;;23.64;37.05;100449.84;4917193;28;20045;-82
2022/08/08 09:14:38;;;;;;;4.80;3.10;;;;;;;23.66;37.07;100448.59;5039136;28;20505;-82
2022/08/08 09:22:02;;;;;;;3.55;2.85;;;;;;;23.78;36.97;100446.13;5016708;28;20040;-84
2022/08/08 09:24:34;;;;;;;4.53;3.13;;;;;;;23.78;37.08;100446.97;5028450;28;20053;-84
2022/08/08 09:27:07;;;;;;;4.40;3.05;;;;;;;23.80;37.22;100444.06;5035775;28;20489;-84
2022/08/08 09:30:09;;;;;;;4.53;3.55;;;;;;;23.89;37.13;100447.38;4990002;28;20057;-84
2022/08/08 09:32:49;;;;;;;9.32;2.97;;;;;;;23.88;37.03;100443.84;4977291;28;20048;-83
2022/08/08 09:35:38;;;;;;;6.60;2.83;;;;;;;23.97;36.99;100452.63;4988371;28;20045;-83
2022/08/08 09:38:42;;;;;;;5.75;3.38;;;;;;;23.95;36.73;100439.25;4987442;28;20053;-83
2022/08/08 09:41:35;;;;;;;4.57;2.75;;;;;;;23.98;35.65;100440.72;4963611;28;20527;-83
2022/08/08 09:44:38;;;;;;;4.30;3.10;;;;;;;23.96;35.43;100437.38;4981829;28;20046;-82
2022/08/08 09:47:07;;;;;;;4.05;2.80;;;;;;;24.06;35.42;100437.78;4974378;28;20129;-82
2022/08/08 09:49:56;;;;;;;3.67;2.97;;;;;;;24.12;34.92;100433.41;5013003;28;20045;-83
2022/08/08 09:52:31;;;;;;;3.58;2.65;;;;;;;24.15;34.45;100438.44;4989137;28;20443;-83
2022/08/08 09:55:20;;;;;;;4.03;2.47;;;;;;;24.18;34.99;100440.72;4962356;28;20128;-82
2022/08/08 09:58:14;;;;;;;3.17;2.92;;;;;;;24.21;34.79;100443.00;4987232;28;20139;-82
2022/08/08 10:00:54;;;;;;;7.03;2.67;;;;;;;24.22;34.79;100431.94;5002710;28;20053;-83
2022/08/08 10:04:17;;;;;;;4.93;2.58;;;;;;;24.22;33.25;100422.94;5021632;28;20049;-83
2022/08/08 10:07:03;;;;;;;8.35;2.70;;;;;;;24.34;34.12;100445.69;4958963;28;20105;-84
2022/08/08 10:09:33;;;;;;;5.05;2.20;;;;;;;24.37;34.37;100434.41;5023464;28;20107;-83
2022/08/08 10:12:31;;;;;;;5.25;2.75;;;;;;;24.34;33.46;100428.56;5004421;28;20562;-83
2022/08/08 10:15:17;;;;;;;2.33;2.13;;;;;;;24.43;32.93;100428.16;4971461;28;20115;-83
2022/08/08 10:17:46;;;;;;;3.13;2.30;;;;;;;24.46;32.87;100427.75;5004321;28;20462;-83
2022/08/08 10:20:46;;;;;;;4.40;2.53;;;;;;;24.46;33.05;100418.78;4961037;28;20411;-83
2022/08/08 10:23:48;;;;;;;2.50;2.30;;;;;;;24.47;31.70;100426.72;4988223;28;20128;-83
2022/08/08 10:26:30;;;;;;;3.28;1.80;;;;;;;24.54;33.01;100423.97;4977302;28;20096;-82
2022/08/08 10:29:21;;;;;;;3.85;2.28;;;;;;;24.55;32.80;100422.09;4941675;28;20065;-83
2022/08/08 10:34:50;;;;;;;3.28;2.33;;;;;;;24.59;32.23;100431.47;4969113;28;20056;-82
2022/08/08 10:37:29;;;;;;;2.75;2.40;;;;;;;24.64;32.02;100416.22;5000885;28;20133;-82
2022/08/08 10:39:57;;;;;;;3.28;2.33;;;;;;;24.69;31.88;100413.69;5035026;28;20168;-83
2022/08/08 10:42:33;;;;;;;3.63;2.35;;;;;;;24.66;32.15;100407.84;4997575;28;20401;-83
2022/08/08 10:45:06;;;;;;;4.65;2.42;;;;;;;24.69;32.08;100407.44;4955088;28;20052;-83
2022/08/08 10:47:35;;;;;;;3.22;2.30;;;;;;;24.72;31.97;100404.28;4976598;28;20178;-82
2022/08/08 10:50:10;;;;;;;2.30;2.10;;;;;;;24.74;32.30;100404.06;4999823;28;20041;-82
2022/08/08 10:52:42;;;;;;;3.47;2.50;;;;;;;24.76;31.38;100404.69;5000759;28;20055;-82
2022/08/08 10:55:16;;;;;;;3.42;2.22;;;;;;;24.75;31.77;100401.13;5017161;28;20111;-82
2022/08/08 10:58:07;;;;;;;4.25;2.63;;;;;;;24.78;31.75;100399.84;4965154;28;20501;-83
2022/08/08 11:00:34;;;;;;;5.15;2.50;;;;;;;24.84;31.95;100401.72;5035342;28;20096;-82
2022/08/08 11:03:21;;;;;;;3.20;2.40;;;;;;;24.89;31.67;100399.19;4997592;28;20494;-83
2022/08/08 11:06:08;;;;;;;4.88;2.25;;;;;;;24.91;32.10;100400.66;4944834;28;20046;-82
2022/08/08 11:08:40;;;;;;;2.63;2.28;;;;;;;24.93;31.63;100405.84;5000450;28;20129;-82
2022/08/08 11:11:18;;;;;;;2.20;2.00;;;;;;;24.95;31.52;100401.03;5019088;28;20049;-83
2022/08/08 11:14:07;;;;;;;2.72;1.95;;;;;;;24.97;31.50;100395.41;5018570;28;20056;-82
2022/08/08 11:16:44;;;;;;;4.43;2.60;;;;;;;24.98;31.68;100391.63;4976987;28;20116;-82
2022/08/08 11:19:12;;;;;;;3.03;2.75;;;;;;;25.01;31.72;100393.91;4984452;28;20046;-83
2022/08/08 11:21:46;;;;;;;3.55;2.00;;;;;;;25.03;31.41;100391.81;5005836;28;20121;-83
2022/08/08 11:24:24;;;;;;;4.50;2.00;;;;;;;25.05;31.64;100387.00;5013081;28;20054;-83
2022/08/08 11:26:51;;;;;;;2.70;2.10;;;;;;;25.09;31.27;100383.63;4982047;28;20066;-83
2022/08/08 11:29:24;;;;;;;3.00;2.40;;;;;;;25.14;31.24;100380.25;5017550;28;20702;-83
2022/08/08 11:32:12;;;;;;;4.43;2.10;;;;;;;25.15;31.12;100379.19;4939837;28;20110;-83
2022/08/08 11:34:45;;;;;;;2.97;2.50;;;;;;;25.14;30.85;100374.81;4987094;28;20384;-83
2022/08/08 11:37:32;;;;;;;2.45;2.25;;;;;;;25.18;30.73;100369.81;4953787;28;20046;-83
2022/08/08 11:40:19;;;;;;;4.85;2.10;;;;;;;25.20;31.16;100365.00;4944765;28;20133;-83
2022/08/08 11:42:53;;;;;;;3.20;2.75;;;;;;;25.25;30.95;100365.16;4953343;28;20050;-82
2022/08/08 11:45:20;;;;;;;3.90;1.90;;;;;;;25.26;31.00;100375.81;4985497;28;20453;-83
2022/08/08 11:47:48;;;;;;;4.53;2.15;;;;;;;25.28;30.42;100381.84;4985974;28;20046;-83
2022/08/08 11:50:31;;;;;;;2.30;2.10;;;;;;;25.35;30.40;100370.94;4990148;28;20052;-82
2022/08/08 11:53:01;;;;;;;4.38;2.50;;;;;;;25.39;30.31;100364.03;4987768;28;20053;-82
2022/08/08 11:55:34;;;;;;;3.70;2.33;;;;;;;25.38;30.24;100369.69;4989422;28;20885;-83
2022/08/08 11:58:08;;;;;;;2.90;2.08;;;;;;;25.40;30.21;100370.31;4955876;28;20053;-83
2022/08/08 12:00:52;;;;;;;3.25;2.50;;;;;;;25.40;30.46;100367.59;4953673;28;20053;-83
2022/08/08 12:04:13;;;;;;;2.63;2.42;;;;;;;25.40;29.95;100364.88;4988172;28;20082;-82
2022/08/08 12:06:43;;;;;;;4.13;2.25;;;;;;;25.47;30.15;100358.31;4956498;28;20117;-82
2022/08/08 12:09:14;;;;;;;2.53;2.22;;;;;;;25.49;30.01;100348.06;5006199;28;20046;-82
2022/08/08 12:11:44;;;;;;;2.20;2.00;;;;;;;25.52;30.14;100358.50;4990724;28;20515;-82
2022/08/08 12:14:22;;;;;;;2.10;1.85;;;;;;;25.50;30.14;100354.31;4978939;28;20052;-83
2022/08/08 12:16:51;;;;;;;3.17;1.98;;;;;;;25.53;30.02;100362.88;5003973;28;20042;-83
2022/08/08 12:19:22;;;;;;;3.50;2.20;;;;;;;25.53;29.50;100351.97;5007232;28;20683;-82
2022/08/08 12:22:10;;;;;;;2.53;1.90;;;;;;;25.58;29.68;100351.31;5006910;28;20041;-83
2022/08/08 12:24:48;;;;;;;2.00;1.90;;;;;;;25.61;29.55;100341.91;5039217;28;20042;-83
2022/08/08 12:27:22;;;;;;;3.28;2.75;;;;;;;25.64;29.44;100339.53;4956434;28;20048;-83
2022/08/08 12:30:01;;;;;;;2.72;2.10;;;;;;;25.64;30.06;100345.00;5020424;28;20049;-83
2022/08/08 12:32:40;;;;;;;2.13;1.90;;;;;;;25.66;28.82;100347.50;4981502;28;20057;-84
2022/08/08 12:35:20;;;;;;;3.80;2.17;;;;;;;25.72;28.53;100338.44;5001133;28;20175;-84
2022/08/08 12:38:04;;;;;;;3.05;1.92;;;;;;;25.74;28.19;100344.50;4988865;28;20037;-84
2022/08/08 12:40:46;;;;;;;2.90;2.10;;;;;;;25.75;27.77;100341.56;4976734;28;20044;-84
2022/08/08 12:43:31;;;;;;;3.85;2.20;;;;;;;25.82;27.70;100338.75;4961676;28;20044;-85
2022/08/08 12:46:21;;;;;;;3.67;1.70;;;;;;;25.91;28.06;100340.19;4997634;28;20050;-85
2022/08/08 12:49:00;;;;;;;2.17;1.92;;;;;;;25.89;28.09;100338.75;5000076;28;21137;-83
2022/08/08 12:51:49;;;;;;;4.10;2.03;;;;;;;25.90;28.30;100335.81;4957852;28;20461;-84
2022/08/08 12:54:29;;;;;;;2.00;1.70;;;;;;;25.92;28.25;100328.22;4988798;28;20044;-83
2022/08/08 12:57:14;;;;;;;2.05;1.85;;;;;;;25.91;28.46;100331.19;5020639;28;20068;-84
2022/08/08 12:59:50;;;;;;;2.55;2.20;;;;;;;25.97;28.09;100325.66;4950945;28;20051;-84
2022/08/08 13:02:41;;;;;;;3.53;1.75;;;;;;;25.97;28.20;100328.38;4970962;28;20056;-83